Aviation Digital Data Service (ADDS)

Output produced by METARs form (0122 UTC 16 January 2019)
found at http://www.aviationweather.gov/metar/data/
 
TAF MGGT 152300Z 1600/1624 36014KT 9999 SCT016 TX24/1620Z TN14/1612Z 
     TEMPO 1605/1612 FEW016 
     BECMG 1615/1617 36016KT FEW018 
     BECMG 1620/1622 SCT020
       
TAF MGPB 152300Z 1600/1624 27008KT 9999 SCT018 BKN090 TX28/1620Z TN21/1612Z 
     TEMPO 1523/1606 7000 RADZ BKN016 
     BECMG 1606/1608 SCT016 
     BECMG 1615/1617 27006KT SCT018
       
TAF MGSJ 152300Z 1600/1624 00000KT CAVOK TX32/1620Z TN21/1612Z 
     BECMG 1615/1617 18008KT FEW018 
     TEMPO 1620/1624 24012KT 7000 SCT020